createdAt,value
2022-10-19T00:01:31.151Z,9.58
2022-10-19T00:03:02.954Z,9.59
2022-10-19T00:04:34.537Z,9.56
2022-10-19T00:06:13.337Z,9.57
2022-10-19T00:07:45.337Z,9.57
2022-10-19T00:09:17.580Z,9.53
2022-10-19T00:10:49.776Z,9.50
2022-10-19T00:12:21.583Z,9.45
2022-10-19T00:13:53.620Z,9.36
2022-10-19T00:15:25.119Z,9.27
2022-10-19T00:16:58.287Z,9.20
2022-10-19T00:18:30.064Z,9.07
2022-10-19T00:20:01.829Z,8.96
2022-10-19T00:21:33.417Z,8.81
2022-10-19T00:23:04.962Z,8.67
2022-10-19T00:24:36.837Z,8.57
2022-10-19T00:26:08.634Z,8.46
2022-10-19T00:27:40.094Z,8.42
2022-10-19T00:29:15.221Z,8.37
2022-10-19T00:30:46.793Z,8.38
2022-10-19T00:32:18.537Z,8.36
2022-10-19T00:33:50.081Z,8.37
2022-10-19T00:35:21.877Z,8.40
2022-10-19T00:36:53.393Z,8.46
2022-10-19T00:38:25.018Z,8.46
2022-10-19T00:39:56.699Z,8.48
2022-10-19T00:41:30.246Z,8.46
2022-10-19T00:43:01.916Z,8.44
2022-10-19T00:44:33.440Z,8.41
2022-10-19T00:46:05.493Z,8.40
2022-10-19T00:47:37.093Z,8.36
2022-10-19T00:49:12.088Z,8.35
2022-10-19T00:50:43.617Z,8.38
2022-10-19T00:52:15.703Z,8.43
2022-10-19T00:53:47.209Z,8.44
2022-10-19T00:55:18.911Z,8.40
2022-10-19T00:56:51.380Z,8.35
2022-10-19T00:58:23.038Z,8.30
2022-10-19T00:59:54.624Z,8.25
2022-10-19T01:01:26.239Z,8.16
2022-10-19T01:02:59.005Z,8.08
2022-10-19T01:04:30.556Z,8.03
2022-10-19T01:06:02.125Z,8.01
2022-10-19T01:07:34.140Z,7.99
2022-10-19T01:09:06.275Z,7.97
2022-10-19T01:10:37.819Z,7.95
2022-10-19T01:12:12.520Z,7.97
2022-10-19T01:13:51.297Z,7.96
2022-10-19T01:15:31.418Z,7.93
2022-10-19T01:17:03.037Z,7.97
2022-10-19T01:19:01.514Z,7.98
2022-10-19T01:20:41.969Z,7.92
2022-10-19T01:22:13.711Z,7.88
2022-10-19T01:23:48.501Z,7.84
2022-10-19T01:25:24.156Z,7.79
2022-10-19T01:27:14.087Z,7.79
2022-10-19T01:28:47.764Z,7.75
2022-10-19T01:30:38.221Z,7.73
2022-10-19T01:32:11.828Z,7.72
2022-10-19T01:34:01.388Z,7.69
2022-10-19T01:35:38.861Z,7.62
2022-10-19T01:37:17.326Z,7.60
2022-10-19T01:38:59.837Z,7.59
2022-10-19T01:40:33.215Z,7.52
2022-10-19T01:42:04.879Z,7.44
2022-10-19T01:43:40.146Z,7.39
2022-10-19T01:45:19.187Z,7.38
2022-10-19T01:46:54.990Z,7.40
2022-10-19T01:48:31.214Z,7.41
2022-10-19T01:50:05.296Z,7.42
2022-10-19T01:51:38.513Z,7.45
2022-10-19T01:53:10.487Z,7.53
2022-10-19T01:54:45.700Z,7.54
2022-10-19T01:56:17.623Z,7.53
2022-10-19T01:57:51.513Z,7.49
2022-10-19T01:59:23.611Z,7.48
2022-10-19T02:00:56.061Z,7.42
2022-10-19T02:02:27.642Z,7.33
2022-10-19T02:03:59.445Z,7.23
2022-10-19T02:05:31.509Z,7.18
2022-10-19T02:07:03.140Z,7.12
2022-10-19T02:08:53.097Z,7.10
2022-10-19T02:10:25.242Z,7.05
2022-10-19T02:11:58.058Z,7.02
2022-10-19T02:13:29.615Z,7.03
2022-10-19T02:15:01.721Z,7.05
2022-10-19T02:16:34.817Z,7.06
2022-10-19T02:18:07.519Z,7.04
2022-10-19T02:19:39.049Z,7.07
2022-10-19T02:21:10.774Z,7.11
2022-10-19T02:22:42.425Z,7.13
2022-10-19T02:24:13.931Z,7.10
2022-10-19T02:25:45.445Z,7.08
2022-10-19T02:27:16.952Z,7.04
2022-10-19T02:28:48.504Z,7.03
2022-10-19T02:30:20.025Z,7.05
2022-10-19T02:31:51.583Z,7.00
2022-10-19T02:33:23.355Z,6.99
2022-10-19T02:34:54.830Z,6.99
2022-10-19T02:36:26.340Z,7.02
2022-10-19T02:37:58.095Z,7.01
2022-10-19T02:39:29.618Z,6.98
2022-10-19T02:41:18.332Z,6.98
2022-10-19T02:42:51.248Z,7.01
2022-10-19T02:44:33.752Z,6.98
2022-10-19T02:46:13.825Z,6.97
2022-10-19T02:47:47.453Z,6.96
2022-10-19T02:49:19.367Z,6.97
2022-10-19T02:50:52.308Z,6.99
2022-10-19T02:52:23.925Z,7.05
2022-10-19T02:53:55.794Z,7.05
2022-10-19T02:55:27.994Z,7.02
2022-10-19T02:56:59.695Z,6.97
2022-10-19T02:58:31.221Z,6.91
2022-10-19T03:00:04.006Z,6.86
2022-10-19T03:01:35.520Z,6.80
2022-10-19T03:03:07.090Z,6.74
2022-10-19T03:04:38.744Z,6.69
2022-10-19T03:06:10.715Z,6.66
2022-10-19T03:07:43.044Z,6.63
2022-10-19T03:09:14.859Z,6.60
2022-10-19T03:10:46.454Z,6.49
2022-10-19T03:12:18.475Z,6.43
2022-10-19T03:13:49.994Z,6.38
2022-10-19T03:15:24.017Z,6.34
2022-10-19T03:16:55.625Z,6.32
2022-10-19T03:18:27.219Z,6.25
2022-10-19T03:19:58.753Z,6.22
2022-10-19T03:21:30.364Z,6.21
2022-10-19T03:23:01.980Z,6.21
2022-10-19T03:24:33.831Z,6.14
2022-10-19T03:26:07.635Z,6.14
2022-10-19T03:27:42.258Z,6.16
2022-10-19T03:29:13.791Z,6.13
2022-10-19T03:30:45.598Z,6.13
2022-10-19T03:32:17.073Z,6.15
2022-10-19T03:33:48.730Z,6.16
2022-10-19T03:35:20.287Z,6.15
2022-10-19T03:36:52.270Z,6.16
2022-10-19T03:38:23.820Z,6.17
2022-10-19T03:39:55.450Z,6.16
2022-10-19T03:41:27.736Z,6.15
2022-10-19T03:42:59.261Z,6.15
2022-10-19T03:44:30.727Z,6.14
2022-10-19T03:46:02.265Z,6.13
2022-10-19T03:47:33.994Z,6.07
2022-10-19T03:49:05.970Z,6.07
2022-10-19T03:50:37.560Z,6.05
2022-10-19T03:52:10.564Z,6.04
2022-10-19T03:53:42.211Z,6.00
2022-10-19T03:55:13.742Z,5.99
2022-10-19T03:56:45.446Z,5.95
2022-10-19T03:58:17.065Z,5.93
2022-10-19T03:59:48.753Z,5.92
2022-10-19T04:01:21.265Z,5.95
2022-10-19T04:02:52.826Z,5.94
2022-10-19T04:04:24.440Z,5.96
2022-10-19T04:06:01.772Z,5.98
2022-10-19T04:07:33.579Z,5.96
2022-10-19T04:09:05.761Z,5.93
2022-10-19T04:10:37.319Z,5.93
2022-10-19T04:12:08.816Z,5.88
2022-10-19T04:13:40.438Z,5.79
2022-10-19T04:15:11.978Z,5.76
2022-10-19T04:16:43.693Z,5.72
2022-10-19T04:18:15.359Z,5.68
2022-10-19T04:19:46.902Z,5.64
2022-10-19T04:21:26.278Z,5.61
2022-10-19T04:22:57.779Z,5.59
2022-10-19T04:24:29.374Z,5.57
2022-10-19T04:26:04.533Z,5.56
2022-10-19T04:27:36.717Z,5.55
2022-10-19T04:29:08.651Z,5.56
2022-10-19T04:30:40.244Z,5.57
2022-10-19T04:32:11.906Z,5.58
2022-10-19T04:33:43.682Z,5.54
2022-10-19T04:35:15.557Z,5.53
2022-10-19T04:36:47.517Z,5.50
2022-10-19T04:38:19.375Z,5.47
2022-10-19T04:39:51.264Z,5.45
2022-10-19T04:41:23.413Z,5.44
2022-10-19T04:42:54.951Z,5.41
2022-10-19T04:44:26.693Z,5.38
2022-10-19T04:46:01.920Z,5.36
2022-10-19T04:47:33.811Z,5.36
2022-10-19T04:49:07.000Z,5.38
2022-10-19T04:50:38.715Z,5.37
2022-10-19T04:52:10.241Z,5.39
2022-10-19T04:53:41.970Z,5.40
2022-10-19T04:55:13.850Z,5.39
2022-10-19T04:56:45.361Z,5.31
2022-10-19T04:58:17.075Z,5.28
2022-10-19T04:59:48.727Z,5.29
2022-10-19T05:01:20.756Z,5.30
2022-10-19T05:02:52.366Z,5.32
2022-10-19T05:04:24.021Z,5.35
2022-10-19T05:05:55.656Z,5.36
2022-10-19T05:07:27.230Z,5.35
2022-10-19T05:08:59.105Z,5.35
2022-10-19T05:10:30.783Z,5.37
2022-10-19T05:12:02.630Z,5.40
2022-10-19T05:13:34.574Z,5.43
2022-10-19T05:15:06.465Z,5.48
2022-10-19T05:16:38.023Z,5.54
2022-10-19T05:18:09.703Z,5.69
2022-10-19T05:19:41.262Z,5.83
2022-10-19T05:21:13.211Z,5.93
2022-10-19T05:22:44.773Z,6.04
2022-10-19T05:24:16.638Z,6.05
2022-10-19T05:25:48.153Z,6.10
2022-10-19T05:27:19.899Z,6.11
2022-10-19T05:28:56.403Z,6.19
2022-10-19T05:30:28.178Z,6.31
2022-10-19T05:32:00.040Z,6.41
2022-10-19T05:33:32.073Z,6.52
2022-10-19T05:35:03.835Z,6.67
2022-10-19T05:36:36.925Z,6.82
2022-10-19T05:38:08.598Z,6.96
2022-10-19T05:39:40.292Z,7.11
2022-10-19T05:41:12.067Z,7.24
2022-10-19T05:42:43.630Z,7.38
2022-10-19T05:44:16.270Z,7.52
2022-10-19T05:45:47.892Z,7.62
2022-10-19T05:47:19.570Z,7.69
2022-10-19T05:48:51.481Z,7.77
2022-10-19T05:50:23.039Z,7.82
2022-10-19T05:51:55.527Z,7.88
2022-10-19T05:53:27.765Z,7.92
2022-10-19T05:54:59.973Z,8.02
2022-10-19T05:56:31.774Z,8.13
2022-10-19T05:58:03.533Z,8.26
2022-10-19T05:59:35.217Z,8.41
2022-10-19T06:01:06.860Z,8.52
2022-10-19T06:02:38.420Z,8.66
2022-10-19T06:04:10.967Z,8.80
2022-10-19T06:05:42.701Z,8.95
2022-10-19T06:07:14.553Z,9.13
2022-10-19T06:08:46.261Z,9.24
2022-10-19T06:10:18.334Z,9.34
2022-10-19T06:11:50.080Z,9.49
2022-10-19T06:13:21.697Z,9.57
2022-10-19T06:14:53.315Z,9.60
2022-10-19T06:16:25.352Z,9.68
2022-10-19T06:17:56.890Z,9.63
2022-10-19T06:19:28.518Z,9.64
2022-10-19T06:21:04.068Z,9.61
2022-10-19T06:22:35.701Z,9.59
2022-10-19T06:24:07.328Z,9.60
2022-10-19T06:25:39.014Z,9.57
2022-10-19T06:27:10.924Z,9.56
2022-10-19T06:28:43.843Z,9.70
2022-10-19T06:30:15.678Z,9.86
2022-10-19T06:31:48.213Z,10.04
2022-10-19T06:33:20.246Z,10.17
2022-10-19T06:34:55.740Z,10.26
2022-10-19T06:36:29.284Z,10.36
2022-10-19T06:38:00.921Z,10.52
2022-10-19T06:39:32.522Z,10.66
2022-10-19T06:41:04.121Z,10.75
2022-10-19T06:42:39.122Z,10.84
2022-10-19T06:44:10.910Z,10.92
2022-10-19T06:45:42.653Z,10.96
2022-10-19T06:47:14.383Z,10.97
2022-10-19T06:48:58.959Z,10.90
2022-10-19T06:50:32.395Z,10.86
2022-10-19T06:52:06.011Z,10.64
2022-10-19T06:53:38.130Z,10.53
2022-10-19T06:55:09.780Z,10.62
2022-10-19T06:56:41.469Z,10.70
2022-10-19T06:58:13.077Z,10.84
2022-10-19T06:59:44.664Z,11.01
2022-10-19T07:01:16.493Z,11.20
2022-10-19T07:02:48.081Z,11.27
2022-10-19T07:04:19.722Z,11.27
2022-10-19T07:05:58.406Z,11.24
2022-10-19T07:07:30.239Z,11.43
2022-10-19T07:09:02.880Z,11.55
2022-10-19T07:10:34.622Z,11.68
2022-10-19T07:12:06.378Z,11.82
2022-10-19T07:13:38.115Z,11.99
2022-10-19T07:15:09.987Z,12.22
2022-10-19T07:16:41.843Z,12.49
2022-10-19T07:18:13.751Z,12.68
2022-10-19T07:19:45.375Z,12.78
2022-10-19T07:21:17.301Z,12.91
2022-10-19T07:22:48.909Z,13.05
2022-10-19T07:24:20.713Z,13.22
2022-10-19T07:25:53.802Z,13.32
2022-10-19T07:27:25.473Z,13.48
2022-10-19T07:28:57.230Z,13.56
2022-10-19T07:30:28.860Z,13.67
2022-10-19T07:32:00.413Z,13.77
2022-10-19T07:33:32.152Z,13.78
2022-10-19T07:35:03.831Z,13.75
2022-10-19T07:36:36.583Z,13.76
2022-10-19T07:38:08.715Z,13.80
2022-10-19T07:39:41.165Z,13.86
2022-10-19T07:41:14.025Z,14.01
2022-10-19T07:42:45.631Z,14.17
2022-10-19T07:44:17.419Z,14.29
2022-10-19T07:45:49.072Z,14.42
2022-10-19T07:47:20.632Z,14.56
2022-10-19T07:48:52.357Z,14.64
2022-10-19T07:50:25.451Z,14.71
2022-10-19T07:51:57.064Z,14.76
2022-10-19T07:53:28.846Z,14.75
2022-10-19T07:55:00.952Z,14.86
2022-10-19T07:56:32.824Z,14.96
2022-10-19T07:58:04.558Z,15.00
2022-10-19T07:59:36.277Z,14.93
2022-10-19T08:01:18.018Z,14.92
2022-10-19T08:03:00.066Z,14.88
2022-10-19T08:05:01.720Z,14.99
2022-10-19T08:06:33.017Z,15.09
2022-10-19T08:08:04.773Z,15.25
2022-10-19T08:09:53.696Z,15.34
2022-10-19T08:11:26.891Z,15.49
2022-10-19T08:12:58.521Z,15.60
2022-10-19T08:14:30.185Z,15.71
2022-10-19T08:39:02.258Z,17.23
2022-10-19T08:40:34.104Z,17.17
2022-10-19T08:42:07.115Z,17.29
2022-10-19T08:43:39.058Z,17.41
2022-10-19T08:45:22.963Z,17.54
2022-10-19T08:46:57.789Z,17.60
2022-10-19T08:48:29.854Z,17.64
2022-10-19T08:50:01.684Z,17.71
2022-10-19T08:51:34.549Z,17.89
2022-10-19T08:53:29.177Z,17.95
2022-10-19T08:55:01.430Z,18.01
2022-10-19T08:56:51.413Z,18.08
2022-10-19T08:58:26.748Z,18.01
2022-10-19T09:00:04.344Z,18.04
2022-10-19T09:01:44.915Z,18.06
2022-10-19T09:03:22.985Z,18.16
2022-10-19T09:05:37.385Z,18.34
2022-10-19T09:07:24.809Z,18.43
2022-10-19T09:08:56.448Z,18.64
2022-10-19T09:10:35.002Z,18.74
2022-10-19T09:12:07.119Z,18.91
2022-10-19T09:14:00.434Z,19.10
2022-10-19T09:15:40.773Z,19.30
2022-10-19T09:17:13.284Z,19.46
2022-10-19T09:18:44.917Z,19.61
2022-10-19T09:20:18.189Z,19.78
2022-10-19T09:21:51.255Z,19.97
2022-10-19T09:23:42.236Z,20.09
2022-10-19T09:25:15.125Z,20.26
2022-10-19T09:26:49.888Z,20.38
2022-10-19T09:28:29.173Z,20.50
2022-10-19T09:30:06.657Z,20.55
2022-10-19T09:31:40.711Z,20.66
2022-10-19T09:33:15.477Z,20.78
2022-10-19T09:35:13.190Z,20.92
2022-10-19T09:36:50.452Z,20.99
2022-10-19T09:38:22.416Z,21.06
2022-10-19T09:39:55.606Z,21.20
2022-10-19T09:41:27.582Z,21.35
2022-10-19T09:43:02.932Z,21.48
2022-10-19T09:44:34.913Z,21.59
2022-10-19T09:46:19.509Z,21.68
2022-10-19T09:47:52.013Z,21.74
2022-10-19T09:49:39.675Z,21.86
2022-10-19T09:51:12.491Z,21.97
2022-10-19T09:52:44.867Z,22.14
2022-10-19T09:54:45.736Z,22.16
2022-10-19T09:56:18.574Z,22.19
2022-10-19T09:57:50.980Z,22.27
2022-10-19T09:59:23.503Z,22.46
2022-10-19T10:00:55.487Z,22.59
2022-10-19T10:02:31.477Z,22.73
2022-10-19T10:04:07.269Z,22.84
2022-10-19T10:05:39.286Z,22.97
2022-10-19T10:07:17.782Z,23.13
2022-10-19T10:08:51.093Z,23.21
2022-10-19T10:10:31.017Z,23.36
2022-10-19T10:12:02.575Z,23.55
2022-10-19T10:13:44.163Z,23.70
2022-10-19T10:15:16.675Z,23.87
2022-10-19T10:16:48.373Z,24.01
2022-10-19T10:18:20.250Z,24.19
2022-10-19T10:19:52.290Z,24.37
2022-10-19T10:21:25.963Z,24.47
2022-10-19T10:22:58.279Z,24.65
2022-10-19T10:24:31.435Z,24.85
2022-10-19T10:26:03.677Z,25.01
2022-10-19T10:27:36.892Z,25.08
2022-10-19T10:29:27.496Z,25.12
2022-10-19T10:31:07.919Z,25.07
2022-10-19T10:32:44.428Z,24.98
2022-10-19T10:34:30.480Z,25.05
2022-10-19T10:36:10.612Z,25.13
2022-10-19T10:37:43.238Z,25.21
2022-10-19T10:39:15.015Z,25.29
2022-10-19T10:40:52.273Z,25.30
2022-10-19T10:42:31.370Z,25.46
2022-10-19T10:44:05.128Z,25.61
2022-10-19T10:45:43.422Z,25.72
2022-10-19T10:47:15.458Z,25.86
2022-10-19T10:48:53.481Z,26.01
2022-10-19T10:50:26.447Z,26.15
2022-10-19T10:51:58.407Z,26.26
2022-10-19T10:53:33.412Z,26.41
2022-10-19T10:55:14.746Z,26.57
2022-10-19T10:57:06.651Z,26.67
2022-10-19T10:58:48.058Z,26.73
2022-10-19T11:00:20.453Z,26.77
2022-10-19T11:02:12.653Z,26.76
2022-10-19T11:03:46.650Z,26.89
2022-10-19T11:05:18.983Z,26.98
2022-10-19T11:06:55.783Z,27.00
2022-10-19T11:08:39.313Z,27.10
2022-10-19T11:10:21.108Z,27.14
2022-10-19T11:11:56.216Z,27.11
2022-10-19T11:13:29.486Z,27.07
2022-10-19T11:15:03.215Z,27.20
2022-10-19T11:16:36.071Z,27.16
2022-10-19T11:18:10.311Z,27.22
2022-10-19T11:19:45.604Z,27.28
2022-10-19T11:21:24.970Z,27.35
2022-10-19T11:23:06.175Z,27.47
2022-10-19T11:24:46.325Z,27.61
2022-10-19T11:26:30.191Z,27.70
2022-10-19T11:28:40.534Z,27.77
2022-10-19T11:30:19.302Z,27.76
2022-10-19T11:31:57.261Z,27.72
2022-10-19T11:33:48.282Z,27.69
2022-10-19T11:35:20.339Z,27.70
2022-10-19T11:36:52.072Z,27.79
2022-10-19T11:38:29.626Z,27.87
2022-10-19T11:40:22.342Z,27.91
2022-10-19T11:41:54.394Z,27.96
2022-10-19T11:43:27.040Z,28.00
2022-10-19T11:44:58.931Z,27.93
2022-10-19T11:46:30.654Z,27.95
2022-10-19T11:48:06.559Z,28.00
2022-10-19T11:49:56.315Z,28.10
2022-10-19T11:51:27.935Z,28.22
2022-10-19T11:53:14.584Z,28.25
2022-10-19T11:54:50.423Z,28.28
2022-10-19T11:56:39.412Z,28.36
2022-10-19T11:58:29.024Z,28.29
2022-10-19T12:00:15.716Z,28.26
2022-10-19T12:02:07.046Z,28.18
2022-10-19T12:03:38.870Z,28.17
2022-10-19T12:05:30.857Z,28.16
2022-10-19T12:07:23.784Z,28.21
2022-10-19T12:09:02.320Z,28.25
2022-10-19T12:10:37.866Z,28.23
2022-10-19T12:12:24.948Z,28.20
2022-10-19T12:13:57.641Z,28.23
2022-10-19T12:15:31.204Z,28.19
2022-10-19T12:17:06.054Z,28.16
2022-10-19T12:18:38.296Z,28.18
2022-10-19T12:20:18.880Z,28.15
2022-10-19T12:21:52.118Z,28.05
2022-10-19T12:23:26.128Z,28.06
2022-10-19T12:24:59.288Z,28.09
2022-10-19T12:26:32.765Z,28.18
2022-10-19T12:28:04.825Z,28.14
2022-10-19T12:29:38.532Z,28.18
2022-10-19T12:31:10.731Z,28.27
2022-10-19T12:33:01.015Z,28.29
2022-10-19T12:34:45.443Z,28.37
2022-10-19T12:36:40.745Z,28.41
2022-10-19T12:38:31.139Z,28.42
2022-10-19T12:40:09.625Z,28.47
2022-10-19T12:42:00.402Z,28.57
2022-10-19T12:43:38.621Z,28.64
2022-10-19T12:45:10.848Z,28.65
2022-10-19T12:46:45.230Z,28.64
2022-10-19T12:48:19.350Z,28.52
2022-10-19T12:49:51.733Z,28.44
2022-10-19T12:51:23.363Z,28.27
2022-10-19T12:52:55.253Z,28.16
2022-10-19T12:54:27.987Z,28.17
2022-10-19T12:56:09.046Z,28.25
2022-10-19T12:57:41.103Z,28.31
2022-10-19T12:59:20.365Z,28.35
2022-10-19T13:00:59.046Z,28.32
2022-10-19T13:04:13.345Z,28.28
2022-10-19T13:05:48.736Z,28.31
2022-10-19T13:07:20.446Z,28.24
2022-10-19T13:08:56.071Z,28.28
2022-10-19T13:10:28.450Z,28.23
2022-10-19T13:12:19.269Z,28.17
2022-10-19T13:13:55.213Z,28.12
2022-10-19T13:15:37.393Z,28.07
2022-10-19T13:17:09.051Z,28.07
2022-10-19T13:18:59.374Z,28.07
2022-10-19T13:20:31.367Z,28.05
2022-10-19T13:22:23.095Z,28.02
2022-10-19T13:23:54.985Z,27.91
2022-10-19T13:25:30.333Z,27.82
2022-10-19T13:27:03.462Z,27.83
2022-10-19T13:28:35.772Z,27.82
2022-10-19T13:30:08.791Z,27.81
2022-10-19T13:31:41.048Z,27.73
2022-10-19T13:33:24.981Z,27.65
2022-10-19T13:34:56.677Z,27.56
2022-10-19T13:36:28.447Z,27.44
2022-10-19T13:38:15.458Z,27.39
2022-10-19T13:39:47.283Z,27.37
2022-10-19T13:41:21.879Z,27.33
2022-10-19T13:42:58.071Z,27.24
2022-10-19T13:44:31.195Z,27.29
2022-10-19T13:46:05.368Z,27.31
2022-10-19T13:47:40.683Z,27.34
2022-10-19T13:49:12.348Z,27.38
2022-10-19T13:50:49.487Z,27.38
2022-10-19T13:52:39.863Z,27.35
2022-10-19T13:54:14.559Z,27.19
2022-10-19T13:56:04.890Z,27.06
2022-10-19T13:57:54.127Z,26.97
2022-10-19T13:59:28.658Z,26.98
2022-10-19T14:01:19.259Z,26.90
2022-10-19T14:03:05.506Z,26.72
2022-10-19T14:04:51.929Z,26.62
2022-10-19T14:06:44.493Z,26.53
2022-10-19T14:08:16.117Z,26.43
2022-10-19T14:09:51.858Z,26.36
2022-10-19T14:11:33.361Z,26.20
2022-10-19T14:13:05.681Z,26.16
2022-10-19T14:16:22.352Z,25.98
2022-10-19T14:17:54.263Z,25.92
2022-10-19T14:19:52.994Z,25.83
2022-10-19T14:21:31.541Z,25.71
2022-10-19T14:23:19.369Z,25.67
2022-10-19T14:24:50.879Z,25.54
2022-10-19T14:26:23.039Z,25.45
2022-10-19T14:27:57.497Z,25.34
2022-10-19T14:29:29.461Z,25.26
2022-10-19T14:31:01.809Z,25.18
2022-10-19T14:32:33.875Z,25.11
2022-10-19T14:34:07.487Z,24.99
2022-10-19T14:35:40.362Z,24.94
2022-10-19T14:37:19.092Z,24.88
2022-10-19T14:38:53.359Z,24.78
2022-10-19T14:40:27.956Z,24.71
2022-10-19T14:42:04.297Z,24.64
2022-10-19T14:43:36.078Z,24.56
2022-10-19T14:45:26.979Z,24.50
2022-10-19T14:47:00.842Z,24.41
2022-10-19T14:48:32.534Z,24.33
2022-10-19T14:50:04.282Z,24.24
2022-10-19T14:51:39.134Z,24.14
2022-10-19T14:53:37.273Z,24.03
2022-10-19T14:55:12.719Z,23.83
2022-10-19T14:56:50.672Z,23.72
2022-10-19T14:58:22.620Z,23.60
2022-10-19T14:59:56.434Z,23.50
2022-10-19T15:01:28.167Z,23.42
2022-10-19T15:03:00.974Z,23.36
2022-10-19T15:04:37.438Z,23.34
2022-10-19T15:06:09.560Z,23.23
2022-10-19T15:07:41.615Z,23.16
2022-10-19T15:09:36.780Z,23.13
2022-10-19T15:11:34.331Z,23.06
2022-10-19T15:13:06.426Z,22.92
2022-10-19T15:14:38.718Z,22.86
2022-10-19T15:16:28.616Z,22.76
2022-10-19T15:18:00.428Z,22.67
2022-10-19T15:19:33.225Z,22.53
2022-10-19T15:21:14.979Z,22.39
2022-10-19T15:22:47.085Z,22.24
2022-10-19T15:24:23.979Z,22.15
2022-10-19T15:26:02.188Z,22.13
2022-10-19T15:27:37.286Z,22.07
2022-10-19T15:29:10.469Z,22.02
2022-10-19T15:30:41.966Z,21.94
2022-10-19T15:32:17.040Z,21.83
2022-10-19T15:33:53.249Z,21.74
2022-10-19T15:35:29.689Z,21.67
2022-10-19T15:37:01.429Z,21.57
2022-10-19T15:38:34.784Z,21.44
2022-10-19T15:40:12.751Z,21.28
2022-10-19T15:41:44.578Z,21.19
2022-10-19T15:43:31.292Z,21.14
2022-10-19T15:45:03.665Z,21.11
2022-10-19T15:46:35.893Z,21.05
2022-10-19T15:48:10.177Z,20.98
2022-10-19T15:49:41.711Z,20.89
2022-10-19T15:51:25.882Z,20.77
2022-10-19T15:53:03.406Z,20.65
2022-10-19T15:54:39.283Z,20.52
2022-10-19T15:56:16.613Z,20.40
2022-10-19T15:57:57.626Z,20.29
2022-10-19T15:59:33.819Z,20.21
2022-10-19T16:01:09.783Z,20.10
2022-10-19T16:02:41.547Z,20.01
2022-10-19T16:04:13.309Z,19.90
2022-10-19T16:05:45.571Z,19.77
2022-10-19T16:07:20.211Z,19.64
2022-10-19T16:08:52.195Z,19.60
2022-10-19T16:10:24.768Z,19.50
2022-10-19T16:11:57.636Z,19.45
2022-10-19T16:13:29.117Z,19.39
2022-10-19T16:15:00.718Z,19.32
2022-10-19T16:16:32.372Z,19.31
2022-10-19T16:18:04.050Z,19.22
2022-10-19T16:19:36.020Z,19.21
2022-10-19T16:21:07.995Z,19.19
2022-10-19T16:22:39.573Z,19.11
2022-10-19T16:24:11.236Z,19.01
2022-10-19T16:25:42.783Z,18.96
2022-10-19T16:27:17.095Z,18.90
2022-10-19T16:28:49.092Z,18.88
2022-10-19T16:30:21.171Z,18.84
2022-10-19T16:31:53.399Z,18.81
2022-10-19T16:33:25.595Z,18.73
2022-10-19T16:34:57.608Z,18.70
2022-10-19T16:36:29.561Z,18.66
2022-10-19T16:38:01.304Z,18.59
2022-10-19T16:39:32.916Z,18.55
2022-10-19T16:41:05.725Z,18.58
2022-10-19T16:42:38.270Z,18.54
2022-10-19T16:44:11.128Z,18.44
2022-10-19T16:45:43.240Z,18.39
2022-10-19T16:47:17.234Z,18.35
2022-10-19T16:48:49.099Z,18.37
2022-10-19T16:50:21.400Z,18.32
2022-10-19T16:51:56.283Z,18.28
2022-10-19T16:53:29.211Z,18.24
2022-10-19T16:55:00.949Z,18.17
2022-10-19T16:56:32.913Z,18.18
2022-10-19T16:58:04.844Z,18.13
2022-10-19T16:59:36.518Z,18.04
2022-10-19T17:01:11.581Z,17.98
2022-10-19T17:02:45.803Z,17.95
2022-10-19T17:04:18.314Z,17.93
2022-10-19T17:05:49.873Z,17.87
2022-10-19T17:07:21.553Z,17.81
2022-10-19T17:09:29.779Z,17.80
2022-10-19T17:10:45.510Z,17.78
2022-10-19T17:12:17.344Z,17.76
2022-10-19T17:13:49.940Z,17.74
2022-10-19T17:15:41.941Z,17.74
2022-10-19T17:17:13.316Z,17.73
2022-10-19T17:18:45.163Z,17.69
2022-10-19T17:20:18.235Z,17.66
2022-10-19T17:21:50.036Z,17.61
2022-10-19T17:23:21.973Z,17.52
2022-10-19T17:24:55.940Z,17.50
2022-10-19T17:26:35.492Z,17.45
2022-10-19T17:28:07.049Z,17.36
2022-10-19T17:29:38.618Z,17.39
2022-10-19T17:31:11.348Z,17.38
2022-10-19T17:32:42.982Z,17.31
2022-10-19T17:34:14.513Z,17.25
2022-10-19T17:35:46.979Z,17.16
2022-10-19T17:37:25.469Z,17.15
2022-10-19T17:39:10.761Z,17.14
2022-10-19T17:40:47.091Z,17.12
2022-10-19T17:42:19.321Z,17.02
2022-10-19T17:43:53.692Z,16.91
2022-10-19T17:45:25.365Z,16.82
2022-10-19T17:46:57.038Z,16.79
2022-10-19T17:48:29.153Z,16.70
2022-10-19T17:50:00.765Z,16.70
2022-10-19T17:51:33.484Z,16.75
2022-10-19T17:53:50.937Z,16.77
2022-10-19T17:57:01.438Z,16.69
2022-10-19T17:58:35.124Z,16.63
2022-10-19T18:00:09.497Z,16.62
2022-10-19T18:01:41.181Z,16.59
2022-10-19T18:03:13.085Z,16.57
2022-10-19T18:04:44.745Z,16.53
2022-10-19T18:06:20.683Z,16.50
2022-10-19T18:07:54.095Z,16.52
2022-10-19T18:09:25.791Z,16.50
2022-10-19T18:11:00.503Z,16.44
2022-10-19T18:12:32.348Z,16.40
2022-10-19T18:14:04.159Z,16.34
2022-10-19T18:15:36.473Z,16.22
2022-10-19T18:17:09.039Z,16.18
2022-10-19T18:18:41.633Z,16.13
2022-10-19T18:20:13.270Z,16.03
2022-10-19T18:21:45.444Z,16.01
2022-10-19T18:23:17.532Z,16.00
2022-10-19T18:24:49.957Z,16.02
2022-10-19T18:26:22.596Z,16.01
2022-10-19T18:27:54.536Z,15.96
2022-10-19T18:29:26.351Z,15.94
2022-10-19T18:31:07.993Z,15.88
2022-10-19T18:32:39.528Z,15.82
2022-10-19T18:34:13.349Z,15.76
2022-10-19T18:35:45.005Z,15.63
2022-10-19T18:37:17.333Z,15.58
2022-10-19T18:38:52.475Z,15.52
2022-10-19T18:40:24.969Z,15.46
2022-10-19T18:41:58.409Z,15.39
2022-10-19T18:43:30.342Z,15.34
2022-10-19T18:45:03.609Z,15.26
2022-10-19T18:46:35.911Z,15.19
2022-10-19T18:48:07.611Z,15.16
2022-10-19T18:49:39.654Z,15.13
2022-10-19T18:51:12.441Z,15.06
2022-10-19T18:52:45.373Z,15.02
2022-10-19T18:54:17.725Z,15.03
2022-10-19T18:56:02.484Z,14.96
2022-10-19T18:57:34.133Z,14.95
2022-10-19T18:59:06.772Z,14.95
2022-10-19T19:00:43.432Z,14.95
2022-10-19T19:02:22.707Z,14.97
2022-10-19T19:04:05.445Z,14.92
2022-10-19T19:05:37.092Z,14.84
2022-10-19T19:07:10.481Z,14.75
2022-10-19T19:10:14.642Z,14.64
2022-10-19T19:11:46.355Z,14.65
2022-10-19T19:13:18.691Z,14.63
2022-10-19T19:14:59.410Z,14.62
2022-10-19T19:16:51.183Z,14.62
2022-10-19T19:18:27.479Z,14.60
2022-10-19T19:20:03.808Z,14.58
2022-10-19T19:21:41.218Z,14.57
2022-10-19T19:23:13.409Z,14.59
2022-10-19T19:24:45.004Z,14.60
2022-10-19T19:26:17.164Z,14.60
2022-10-19T19:27:48.702Z,14.56
2022-10-19T19:29:20.572Z,14.52
2022-10-19T19:30:52.878Z,14.53
2022-10-19T19:32:31.184Z,14.51
2022-10-19T19:34:08.808Z,14.49
2022-10-19T19:35:54.976Z,14.49
2022-10-19T19:37:33.714Z,14.49
2022-10-19T19:39:08.248Z,14.49
2022-10-19T19:40:41.082Z,14.47
2022-10-19T19:42:13.249Z,14.46
2022-10-19T19:43:45.042Z,14.45
2022-10-19T19:45:16.762Z,14.47
2022-10-19T19:46:48.399Z,14.48
2022-10-19T19:48:19.915Z,14.50
2022-10-19T19:49:58.365Z,14.55
2022-10-19T19:51:30.586Z,14.58
2022-10-19T19:53:02.340Z,14.62
2022-10-19T19:54:34.238Z,14.64
2022-10-19T19:56:06.356Z,14.65
2022-10-19T19:57:38.187Z,14.70
2022-10-19T19:59:10.656Z,14.74
2022-10-19T20:00:42.757Z,14.78
2022-10-19T20:02:16.553Z,14.76
2022-10-19T20:03:48.744Z,14.74
2022-10-19T20:05:20.644Z,14.71
2022-10-19T20:06:52.298Z,14.66
2022-10-19T20:08:24.367Z,14.58
2022-10-19T20:09:56.856Z,14.50
2022-10-19T20:11:28.593Z,14.43
2022-10-19T20:13:00.262Z,14.37
2022-10-19T20:14:31.903Z,14.33
2022-10-19T20:16:07.293Z,14.31
2022-10-19T20:17:38.990Z,14.29
2022-10-19T20:19:11.810Z,14.26
2022-10-19T20:20:43.313Z,14.26
2022-10-19T20:22:14.829Z,14.26
2022-10-19T20:23:46.819Z,14.26
2022-10-19T20:25:18.481Z,14.26
2022-10-19T20:26:50.094Z,14.29
2022-10-19T20:28:21.734Z,14.30
2022-10-19T20:29:58.582Z,14.29
2022-10-19T20:31:30.147Z,14.28
2022-10-19T20:33:02.050Z,14.27
2022-10-19T20:34:35.499Z,14.24
2022-10-19T20:36:08.141Z,14.21
2022-10-19T20:37:40.129Z,14.19
2022-10-19T20:39:11.844Z,14.16
2022-10-19T20:40:43.388Z,14.08
2022-10-19T20:42:15.391Z,14.07
2022-10-19T20:43:47.026Z,14.07
2022-10-19T20:45:18.662Z,14.05
2022-10-19T20:46:50.589Z,14.05
2022-10-19T20:48:22.167Z,14.02
2022-10-19T20:49:53.785Z,14.02
2022-10-19T20:51:30.717Z,14.01
2022-10-19T20:53:03.407Z,13.98
2022-10-19T20:54:36.162Z,13.95
2022-10-19T20:56:08.484Z,13.94
2022-10-19T20:57:40.184Z,13.94
2022-10-19T20:59:19.643Z,13.91
2022-10-19T21:00:51.269Z,13.89
2022-10-19T21:02:22.837Z,13.87
2022-10-19T21:03:55.637Z,13.86